createdAt,value
2019-01-20T00:00:57.856Z,92.90
2019-01-20T00:03:25.708Z,93.20
2019-01-20T00:05:53.720Z,93.50
2019-01-20T00:08:22.802Z,93.50
2019-01-20T00:10:50.807Z,93.40
2019-01-20T00:13:18.569Z,93.70
2019-01-20T00:15:47.567Z,93.40
2019-01-20T00:18:15.507Z,93.60
2019-01-20T00:20:43.342Z,92.90
2019-01-20T00:23:11.182Z,93.50
2019-01-20T00:25:39.335Z,93.70
2019-01-20T00:28:07.135Z,94.20
2019-01-20T00:30:35.066Z,93.60
2019-01-20T00:33:04.164Z,93.70
2019-01-20T00:35:32.493Z,93.20
2019-01-20T00:38:00.284Z,93.60
2019-01-20T00:40:28.281Z,93.90
2019-01-20T00:42:56.272Z,93.80
2019-01-20T00:45:24.042Z,93.80
2019-01-20T00:47:52.005Z,94.10
2019-01-20T00:50:19.780Z,94.10
2019-01-20T00:52:47.759Z,94.00
2019-01-20T00:55:15.976Z,94.10
2019-01-20T00:57:44.449Z,94.00
2019-01-20T01:00:25.692Z,93.90
2019-01-20T01:02:53.635Z,93.90
2019-01-20T01:05:21.822Z,93.50
2019-01-20T01:07:50.681Z,93.80
2019-01-20T01:10:18.658Z,94.00
2019-01-20T01:12:46.791Z,94.00
2019-01-20T01:15:14.819Z,93.90
2019-01-20T01:17:42.603Z,93.90
2019-01-20T01:20:12.599Z,93.50
2019-01-20T01:22:42.681Z,93.80
2019-01-20T01:25:12.636Z,93.80
2019-01-20T01:27:41.273Z,93.90
2019-01-20T01:30:18.385Z,93.80
2019-01-20T01:32:46.433Z,93.80
2019-01-20T01:35:14.606Z,94.30
2019-01-20T01:37:42.596Z,93.90
2019-01-20T01:40:11.669Z,93.60
2019-01-20T01:42:39.846Z,93.80
2019-01-20T01:45:12.195Z,93.80
2019-01-20T01:47:40.312Z,94.00
2019-01-20T01:50:09.573Z,94.00
2019-01-20T01:52:37.350Z,94.00
2019-01-20T01:55:06.973Z,94.50
2019-01-20T01:57:36.031Z,94.30
2019-01-20T02:00:09.274Z,94.20
2019-01-20T02:02:37.062Z,94.20
2019-01-20T02:05:06.079Z,94.60
2019-01-20T02:07:34.026Z,94.00
2019-01-20T02:10:01.948Z,94.40
2019-01-20T02:12:29.882Z,94.10
2019-01-20T02:14:57.688Z,94.20
2019-01-20T02:17:25.721Z,93.80
2019-01-20T02:19:53.822Z,94.00
2019-01-20T02:22:21.619Z,94.00
2019-01-20T02:24:49.653Z,93.80
2019-01-20T02:27:17.418Z,93.70
2019-01-20T02:29:45.427Z,93.50
2019-01-20T02:32:18.163Z,93.80
2019-01-20T02:34:46.138Z,93.70
2019-01-20T02:37:13.940Z,93.50
2019-01-20T02:39:43.101Z,93.70
2019-01-20T02:42:10.880Z,93.90
2019-01-20T02:44:38.661Z,93.80
2019-01-20T02:47:06.684Z,93.80
2019-01-20T02:49:34.462Z,93.80
2019-01-20T02:52:02.237Z,94.20
2019-01-20T02:54:30.236Z,93.60
2019-01-20T02:56:58.024Z,93.90
2019-01-20T02:59:26.118Z,93.60
2019-01-20T03:01:54.034Z,93.80
2019-01-20T03:04:21.828Z,93.90
2019-01-20T03:06:49.771Z,93.60
2019-01-20T03:09:17.704Z,93.70
2019-01-20T03:11:45.478Z,93.60
2019-01-20T03:14:13.396Z,93.20
2019-01-20T03:16:41.211Z,93.00
2019-01-20T03:19:09.189Z,93.20
2019-01-20T03:21:38.652Z,93.50
2019-01-20T03:24:06.449Z,93.20
2019-01-20T03:26:34.213Z,93.00
2019-01-20T03:29:02.172Z,93.40
2019-01-20T03:31:29.960Z,93.20
2019-01-20T03:34:02.739Z,93.40
2019-01-20T03:36:30.562Z,93.30
2019-01-20T03:38:58.336Z,93.30
2019-01-20T03:41:26.326Z,92.90
2019-01-20T03:43:54.092Z,93.40
2019-01-20T03:46:22.059Z,93.40
2019-01-20T03:48:51.055Z,93.00
2019-01-20T03:51:19.028Z,93.00
2019-01-20T03:53:46.819Z,93.70
2019-01-20T03:56:14.770Z,93.70
2019-01-20T03:58:42.676Z,93.60
2019-01-20T04:01:10.727Z,93.50
2019-01-20T04:03:38.709Z,93.10
2019-01-20T04:06:07.596Z,93.30
2019-01-20T04:08:35.670Z,92.70
2019-01-20T04:11:03.744Z,92.80
2019-01-20T04:13:33.323Z,93.40
2019-01-20T04:16:01.330Z,93.60
2019-01-20T04:18:29.103Z,93.90
2019-01-20T04:20:56.893Z,93.70
2019-01-20T04:23:24.774Z,94.20
2019-01-20T04:25:52.704Z,93.60
2019-01-20T04:28:20.753Z,93.50
2019-01-20T04:30:50.533Z,94.00
2019-01-20T04:33:18.375Z,94.10
2019-01-20T04:35:46.349Z,94.20
2019-01-20T04:38:14.112Z,94.00
2019-01-20T04:40:41.875Z,93.90
2019-01-20T04:43:09.848Z,93.80
2019-01-20T04:45:37.613Z,93.70
2019-01-20T04:48:05.790Z,93.60
2019-01-20T04:50:33.583Z,94.30
2019-01-20T04:53:01.381Z,94.30
2019-01-20T04:55:29.316Z,94.20
2019-01-20T04:57:57.682Z,94.70
2019-01-20T05:00:27.327Z,94.80
2019-01-20T05:02:55.303Z,95.10
2019-01-20T05:05:24.085Z,94.60
2019-01-20T05:07:51.991Z,94.90
2019-01-20T05:10:19.914Z,94.20
2019-01-20T05:12:47.886Z,93.40
2019-01-20T05:15:18.648Z,94.60
2019-01-20T05:17:46.458Z,94.20
2019-01-20T05:20:15.404Z,94.50
2019-01-20T05:22:43.189Z,94.10
2019-01-20T05:25:11.860Z,94.10
2019-01-20T05:27:39.628Z,94.00
2019-01-20T05:30:12.291Z,93.40
2019-01-20T05:32:40.361Z,93.70
2019-01-20T05:35:09.208Z,93.10
2019-01-20T05:37:36.990Z,93.50
2019-01-20T05:40:07.074Z,93.60
2019-01-20T05:42:35.124Z,93.80
2019-01-20T05:45:07.515Z,94.00
2019-01-20T05:47:35.346Z,94.00
2019-01-20T05:50:04.750Z,93.70
2019-01-20T05:52:32.523Z,94.00
2019-01-20T05:55:00.433Z,93.80
2019-01-20T05:57:28.395Z,94.50
2019-01-20T05:59:56.189Z,94.80
2019-01-20T06:02:24.076Z,95.10
2019-01-20T06:04:52.204Z,95.70
2019-01-20T06:07:19.992Z,94.70
2019-01-20T06:09:48.473Z,94.50
2019-01-20T06:12:16.527Z,94.10
2019-01-20T06:14:44.309Z,93.70
2019-01-20T06:17:12.199Z,94.20
2019-01-20T06:19:40.140Z,94.40
2019-01-20T06:22:07.926Z,94.30
2019-01-20T06:24:35.723Z,94.10
2019-01-20T06:27:03.663Z,93.30
2019-01-20T06:29:31.433Z,93.60
2019-01-20T06:31:59.224Z,93.10
2019-01-20T06:34:27.154Z,93.60
2019-01-20T06:36:54.924Z,93.30
2019-01-20T06:39:22.824Z,93.10
2019-01-20T06:41:50.801Z,93.70
2019-01-20T06:44:18.584Z,94.00
2019-01-20T06:46:46.358Z,93.90
2019-01-20T06:49:14.282Z,94.40
2019-01-20T06:51:42.223Z,94.40
2019-01-20T06:54:10.161Z,93.20
2019-01-20T06:56:38.115Z,93.50
2019-01-20T06:59:06.177Z,93.50
2019-01-20T07:01:33.966Z,93.20
2019-01-20T07:04:01.762Z,92.80
2019-01-20T07:06:29.690Z,93.00
2019-01-20T07:08:57.967Z,93.00
2019-01-20T07:11:25.951Z,93.30
2019-01-20T07:13:53.741Z,92.40
2019-01-20T07:16:21.520Z,92.90
2019-01-20T07:18:51.298Z,93.00
2019-01-20T07:21:19.088Z,93.10
2019-01-20T07:23:46.883Z,93.20
2019-01-20T07:26:14.794Z,93.40
2019-01-20T07:28:42.584Z,93.40
2019-01-20T07:31:10.548Z,93.10
2019-01-20T07:33:38.524Z,93.20
2019-01-20T07:36:06.492Z,93.30
2019-01-20T07:38:34.379Z,93.70
2019-01-20T07:41:03.390Z,93.50
2019-01-20T07:43:31.169Z,93.80
2019-01-20T07:45:58.964Z,93.20
2019-01-20T07:48:26.888Z,93.10
2019-01-20T07:50:54.676Z,92.70
2019-01-20T07:53:22.495Z,92.40
2019-01-20T07:55:51.008Z,91.90
2019-01-20T07:58:19.168Z,92.00
2019-01-20T08:00:46.964Z,92.00
2019-01-20T08:03:14.764Z,92.10
2019-01-20T08:05:42.698Z,92.30
2019-01-20T08:08:10.556Z,91.70
2019-01-20T08:10:38.499Z,92.50
2019-01-20T08:13:06.519Z,92.00
2019-01-20T08:15:34.330Z,92.90
2019-01-20T08:18:02.240Z,92.80
2019-01-20T08:20:30.022Z,93.40
2019-01-20T08:22:57.999Z,93.40
2019-01-20T08:25:26.313Z,93.10
2019-01-20T08:27:54.199Z,93.40
2019-01-20T08:30:24.824Z,93.70
2019-01-20T08:32:52.860Z,93.80
2019-01-20T08:35:20.845Z,94.00
2019-01-20T08:37:48.705Z,93.80
2019-01-20T08:40:25.793Z,93.60
2019-01-20T08:42:55.440Z,93.80
2019-01-20T08:46:26.001Z,93.40
2019-01-20T08:48:55.268Z,93.90
2019-01-20T08:51:23.129Z,93.60
2019-01-20T08:53:52.463Z,94.40
2019-01-20T08:56:21.373Z,93.70
2019-01-20T08:58:49.208Z,93.90
2019-01-20T09:01:17.210Z,94.30
2019-01-20T09:03:45.094Z,94.30
2019-01-20T09:06:13.062Z,95.10
2019-01-20T09:08:41.040Z,95.00
2019-01-20T09:11:09.095Z,94.20
2019-01-20T09:13:39.750Z,94.80
2019-01-20T09:16:08.655Z,95.20
2019-01-20T09:18:36.475Z,95.10
2019-01-20T09:21:04.474Z,94.80
2019-01-20T09:23:32.447Z,95.00
2019-01-20T09:26:01.217Z,94.70
2019-01-20T09:28:29.974Z,94.80
2019-01-20T09:30:58.794Z,95.00
2019-01-20T09:33:26.797Z,95.10
2019-01-20T09:35:55.253Z,95.00
2019-01-20T09:38:25.570Z,94.90
2019-01-20T09:40:53.795Z,95.00
2019-01-20T09:43:23.935Z,95.30
2019-01-20T09:45:53.525Z,95.10
2019-01-20T09:48:22.448Z,95.40
2019-01-20T09:50:51.827Z,95.10
2019-01-20T09:53:19.588Z,95.60
2019-01-20T09:55:47.551Z,95.40
2019-01-20T09:58:15.335Z,95.70
2019-01-20T10:00:43.307Z,94.80
2019-01-20T10:03:16.219Z,95.10
2019-01-20T10:05:40.868Z,95.00
2019-01-20T10:08:09.095Z,95.10
2019-01-20T10:10:36.986Z,94.70
2019-01-20T10:13:04.965Z,94.60
2019-01-20T10:15:34.757Z,94.40
2019-01-20T10:18:02.762Z,94.00
2019-01-20T10:20:32.690Z,94.10
2019-01-20T10:23:01.136Z,94.10
2019-01-20T10:25:29.084Z,94.10
2019-01-20T10:27:57.982Z,94.00
2019-01-20T10:30:36.511Z,93.40
2019-01-20T10:33:04.811Z,93.90
2019-01-20T10:36:07.272Z,93.60
2019-01-20T10:38:37.310Z,93.90
2019-01-20T10:41:05.423Z,94.20
2019-01-20T10:43:33.229Z,94.10
2019-01-20T10:46:01.016Z,93.50
2019-01-20T10:48:28.958Z,93.40
2019-01-20T10:50:56.760Z,93.10
2019-01-20T10:53:25.790Z,91.60
2019-01-20T10:55:53.790Z,90.90
2019-01-20T10:58:23.444Z,90.60
2019-01-20T11:00:51.243Z,91.10
2019-01-20T11:03:19.325Z,92.40
2019-01-20T11:05:47.299Z,92.80
2019-01-20T11:08:18.186Z,90.80
2019-01-20T11:10:46.003Z,89.30
2019-01-20T11:13:13.942Z,87.40
2019-01-20T11:15:44.866Z,87.30
2019-01-20T11:18:14.627Z,88.70
2019-01-20T11:20:47.465Z,87.40
2019-01-20T11:23:15.734Z,87.60
2019-01-20T11:25:43.820Z,87.40
2019-01-20T11:28:12.043Z,88.20
2019-01-20T11:30:41.313Z,89.40
2019-01-20T11:33:11.867Z,85.40
2019-01-20T11:35:39.878Z,87.50
2019-01-20T11:38:07.730Z,84.60
2019-01-20T11:40:37.232Z,85.20
2019-01-20T11:43:05.339Z,83.00
2019-01-20T11:45:33.219Z,87.00
2019-01-20T11:48:01.171Z,88.00
2019-01-20T11:50:29.649Z,90.00
2019-01-20T11:52:57.459Z,88.90
2019-01-20T11:55:25.616Z,87.20
2019-01-20T11:57:53.564Z,89.90
2019-01-20T12:00:34.344Z,81.80
2019-01-20T12:03:02.215Z,86.60
2019-01-20T12:05:31.868Z,83.20
2019-01-20T12:07:59.763Z,82.70
2019-01-20T12:10:27.845Z,81.80
2019-01-20T12:13:04.249Z,80.60
2019-01-20T12:15:32.281Z,75.30
2019-01-20T12:18:00.342Z,78.00
2019-01-20T12:20:28.260Z,77.80
2019-01-20T12:22:58.297Z,78.80
2019-01-20T12:25:26.292Z,79.90
2019-01-20T12:27:54.146Z,80.90
2019-01-20T12:30:24.619Z,78.80
2019-01-20T12:32:52.472Z,76.60
2019-01-20T12:35:20.271Z,76.90
2019-01-20T12:37:48.179Z,69.70
2019-01-20T12:40:25.825Z,74.50
2019-01-20T12:42:53.599Z,76.60
2019-01-20T12:45:21.440Z,76.90
2019-01-20T12:47:49.317Z,75.30
2019-01-20T12:50:17.249Z,77.30
2019-01-20T12:52:45.130Z,73.60
2019-01-20T12:55:13.514Z,71.20
2019-01-20T12:57:41.362Z,68.60
2019-01-20T13:00:12.619Z,76.30
2019-01-20T13:02:40.394Z,72.10
2019-01-20T13:05:08.176Z,73.20
2019-01-20T13:07:36.072Z,77.20
2019-01-20T13:10:06.327Z,73.80
2019-01-20T13:12:34.104Z,74.40
2019-01-20T13:15:02.077Z,69.20
2019-01-20T13:17:29.971Z,73.30
2019-01-20T13:19:57.807Z,70.70
2019-01-20T13:22:25.731Z,72.50
2019-01-20T13:24:55.987Z,75.00
2019-01-20T13:27:23.784Z,70.00
2019-01-20T13:29:53.176Z,71.20
2019-01-20T13:32:21.097Z,66.60
2019-01-20T13:34:48.970Z,68.60
2019-01-20T13:37:16.776Z,69.20
2019-01-20T13:39:44.802Z,65.70
2019-01-20T13:42:12.705Z,67.80
2019-01-20T13:44:46.226Z,70.40
2019-01-20T13:47:10.453Z,66.00
2019-01-20T13:49:38.213Z,60.70
2019-01-20T13:52:06.238Z,58.70
2019-01-20T13:54:34.042Z,60.90
2019-01-20T13:57:01.929Z,64.50
2019-01-20T13:59:30.292Z,64.10
2019-01-20T14:01:59.973Z,59.20
2019-01-20T14:04:27.826Z,59.70
2019-01-20T14:06:55.699Z,60.20
2019-01-20T14:09:23.591Z,60.10
2019-01-20T14:11:51.648Z,56.00
2019-01-20T14:14:19.906Z,57.20
2019-01-20T14:16:47.741Z,57.30
2019-01-20T14:19:21.721Z,56.50
2019-01-20T14:21:51.263Z,54.20
2019-01-20T14:24:25.976Z,51.60
2019-01-20T14:26:54.030Z,53.80
2019-01-20T14:29:21.920Z,55.40
2019-01-20T14:31:52.624Z,53.90
2019-01-20T14:34:23.779Z,56.40
2019-01-20T14:36:51.872Z,54.40
2019-01-20T14:39:21.451Z,54.30
2019-01-20T14:41:49.259Z,53.30
2019-01-20T14:44:21.635Z,54.50
2019-01-20T14:46:50.107Z,52.20
2019-01-20T14:49:23.564Z,52.30
2019-01-20T14:51:51.427Z,52.40
2019-01-20T14:54:19.665Z,51.90
2019-01-20T14:56:47.446Z,51.60
2019-01-20T14:59:16.990Z,51.10
2019-01-20T15:01:46.895Z,49.20
2019-01-20T15:04:19.006Z,50.70
2019-01-20T15:06:51.674Z,49.50
2019-01-20T15:09:33.771Z,49.30
2019-01-20T15:12:04.497Z,47.30
2019-01-20T15:14:39.026Z,46.50
2019-01-20T15:17:07.135Z,44.90
2019-01-20T15:19:35.023Z,46.10
2019-01-20T15:22:05.325Z,45.60
2019-01-20T15:24:35.508Z,45.90
2019-01-20T15:27:05.251Z,45.00
2019-01-20T15:29:36.175Z,46.00
2019-01-20T15:32:04.356Z,46.30
2019-01-20T15:34:37.068Z,47.00
2019-01-20T15:37:10.400Z,47.30
2019-01-20T15:39:38.219Z,48.10
2019-01-20T15:42:09.023Z,49.20
2019-01-20T15:44:37.087Z,49.40
2019-01-20T15:47:04.917Z,51.60
2019-01-20T15:49:33.104Z,52.40
2019-01-20T15:52:00.991Z,54.00
2019-01-20T15:54:28.984Z,55.50
2019-01-20T15:56:59.854Z,56.30
2019-01-20T15:59:27.642Z,56.20
2019-01-20T16:01:55.525Z,60.70
2019-01-20T16:04:24.755Z,61.70
2019-01-20T16:06:52.596Z,62.00
2019-01-20T16:09:20.522Z,62.60
2019-01-20T16:11:48.621Z,63.70
2019-01-20T16:14:16.459Z,64.20
2019-01-20T16:16:44.278Z,65.30
2019-01-20T16:19:12.228Z,66.80
2019-01-20T16:21:40.163Z,67.60
2019-01-20T16:24:08.098Z,68.10
2019-01-20T16:26:36.199Z,68.00
2019-01-20T16:29:04.153Z,68.20
2019-01-20T16:31:32.115Z,69.40
2019-01-20T16:34:06.776Z,72.10
2019-01-20T16:36:35.027Z,72.00
2019-01-20T16:39:06.019Z,72.30
2019-01-20T16:41:36.850Z,73.90
2019-01-20T16:44:07.548Z,74.00
2019-01-20T16:46:37.353Z,76.40
2019-01-20T16:49:05.189Z,75.80
2019-01-20T16:51:33.153Z,77.20
2019-01-20T16:54:03.050Z,76.90
2019-01-20T16:56:31.084Z,79.50
2019-01-20T16:58:59.316Z,83.90
2019-01-20T17:01:27.332Z,87.40
2019-01-20T17:03:55.327Z,86.70
2019-01-20T17:06:23.191Z,85.10
2019-01-20T17:08:52.312Z,84.40
2019-01-20T17:11:21.874Z,84.40
2019-01-20T17:13:49.885Z,85.30
2019-01-20T17:16:17.743Z,88.00
2019-01-20T17:18:45.586Z,88.50
2019-01-20T17:21:13.904Z,88.60
2019-01-20T17:23:41.741Z,87.50
2019-01-20T17:26:09.611Z,87.20
2019-01-20T17:28:37.645Z,87.20
2019-01-20T17:31:05.543Z,86.30
2019-01-20T17:33:33.334Z,86.00
2019-01-20T17:36:01.332Z,86.80
2019-01-20T17:38:30.122Z,87.10
2019-01-20T17:40:58.185Z,88.10
2019-01-20T17:43:26.337Z,89.20
2019-01-20T17:45:54.466Z,90.60
2019-01-20T17:48:22.549Z,90.10
2019-01-20T17:50:50.395Z,90.30
2019-01-20T17:53:18.574Z,90.30
2019-01-20T17:55:47.672Z,90.70
2019-01-20T17:58:15.516Z,90.80
2019-01-20T18:00:46.804Z,90.60
2019-01-20T18:03:14.959Z,90.70
2019-01-20T18:05:43.017Z,91.00
2019-01-20T18:08:10.909Z,90.90
2019-01-20T18:10:40.377Z,90.20
2019-01-20T18:13:08.184Z,90.40
2019-01-20T18:15:36.075Z,90.30
2019-01-20T18:18:04.262Z,90.70
2019-01-20T18:20:32.193Z,90.40
2019-01-20T18:23:01.389Z,90.40
2019-01-20T18:25:29.569Z,90.60
2019-01-20T18:27:57.464Z,90.60
2019-01-20T18:30:27.226Z,90.20
2019-01-20T18:32:56.192Z,90.20
2019-01-20T18:35:25.594Z,90.20
2019-01-20T18:37:53.611Z,90.30
2019-01-20T18:40:25.857Z,90.00
2019-01-20T18:42:53.992Z,89.90
2019-01-20T18:45:25.723Z,89.10
2019-01-20T18:47:53.524Z,88.00
2019-01-20T18:50:25.685Z,88.70
2019-01-20T18:52:53.643Z,89.00
2019-01-20T18:55:21.840Z,87.30
2019-01-20T18:57:49.853Z,87.20
2019-01-20T19:00:23.228Z,87.50
2019-01-20T19:02:51.312Z,87.50
2019-01-20T19:05:19.473Z,87.10
2019-01-20T19:07:47.327Z,88.40
2019-01-20T19:10:16.663Z,88.60
2019-01-20T19:12:44.582Z,88.90
2019-01-20T19:15:15.297Z,88.70
2019-01-20T19:17:43.540Z,88.80
2019-01-20T19:20:17.757Z,90.50
2019-01-20T19:22:47.464Z,90.60
2019-01-20T19:25:15.506Z,90.70
2019-01-20T19:27:43.699Z,90.50
2019-01-20T19:30:17.070Z,91.10
2019-01-20T19:32:45.180Z,91.20
2019-01-20T19:35:13.742Z,90.90
2019-01-20T19:37:41.968Z,90.40
2019-01-20T19:40:10.699Z,90.60
2019-01-20T19:42:42.308Z,90.50
2019-01-20T19:45:16.176Z,90.20
2019-01-20T19:47:45.608Z,90.30
2019-01-20T19:50:17.002Z,90.10
2019-01-20T19:52:49.400Z,90.00
2019-01-20T19:55:24.646Z,89.30
2019-01-20T19:57:56.969Z,90.10
2019-01-20T20:00:26.799Z,90.30
2019-01-20T20:02:54.913Z,90.00
2019-01-20T20:05:23.957Z,90.40
2019-01-20T20:07:53.218Z,90.70
2019-01-20T20:10:23.782Z,90.60
2019-01-20T20:12:52.738Z,90.20
2019-01-20T20:15:23.001Z,90.10
2019-01-20T20:17:51.033Z,90.20
2019-01-20T20:20:19.430Z,89.60
2019-01-20T20:22:47.787Z,90.30
2019-01-20T20:25:17.531Z,89.80
2019-01-20T20:27:45.555Z,89.80
2019-01-20T20:30:20.417Z,89.60
2019-01-20T20:32:48.243Z,89.50
2019-01-20T20:35:16.041Z,88.70
2019-01-20T20:37:44.379Z,90.10
2019-01-20T20:40:14.816Z,90.10
2019-01-20T20:42:42.688Z,90.20
2019-01-20T20:45:16.787Z,90.10
2019-01-20T20:47:45.351Z,89.70
2019-01-20T20:50:15.471Z,90.00
2019-01-20T20:52:46.140Z,89.60
2019-01-20T20:55:13.667Z,89.30
2019-01-20T20:57:41.711Z,89.20
2019-01-20T21:00:20.071Z,89.50
2019-01-20T21:02:48.357Z,89.10
2019-01-20T21:05:16.387Z,89.50
2019-01-20T21:07:44.727Z,90.10
2019-01-20T21:10:15.076Z,90.30
2019-01-20T21:12:43.098Z,90.80
2019-01-20T21:15:13.413Z,90.50
2019-01-20T21:17:47.837Z,91.10
2019-01-20T21:20:15.817Z,91.60
2019-01-20T21:22:43.951Z,91.50
2019-01-20T21:25:13.383Z,91.10
2019-01-20T21:27:41.306Z,91.60
2019-01-20T21:30:17.757Z,92.00
2019-01-20T21:32:45.621Z,91.50
2019-01-20T21:35:13.823Z,91.80
2019-01-20T21:37:41.849Z,91.40
2019-01-20T21:40:11.857Z,91.40
2019-01-20T21:42:39.913Z,91.40
2019-01-20T21:45:09.701Z,91.20
2019-01-20T21:47:37.631Z,91.70
2019-01-20T21:50:13.975Z,91.40
2019-01-20T21:52:41.817Z,92.10
2019-01-20T21:55:09.967Z,91.60
2019-01-20T21:57:37.964Z,92.40
2019-01-20T22:00:10.173Z,92.20
2019-01-20T22:02:39.374Z,92.30
2019-01-20T22:05:08.729Z,92.30
2019-01-20T22:07:36.907Z,92.10
2019-01-20T22:10:08.568Z,93.40
2019-01-20T22:12:36.399Z,93.20
2019-01-20T22:15:05.214Z,93.00
2019-01-20T22:17:34.363Z,92.80
2019-01-20T22:20:02.442Z,92.60
2019-01-20T22:22:30.282Z,92.40
2019-01-20T22:24:58.347Z,92.70
2019-01-20T22:27:26.423Z,92.70
2019-01-20T22:29:54.815Z,92.90
2019-01-20T22:32:22.657Z,92.90
2019-01-20T22:34:50.493Z,92.90
2019-01-20T22:37:18.546Z,92.90
2019-01-20T22:39:46.470Z,92.80
2019-01-20T22:42:14.333Z,91.70
2019-01-20T22:44:42.339Z,92.30
2019-01-20T22:47:10.237Z,92.00
2019-01-20T22:49:38.064Z,91.10
2019-01-20T22:52:06.298Z,91.60
2019-01-20T22:54:34.252Z,91.80
2019-01-20T22:57:02.068Z,91.10
2019-01-20T22:59:30.090Z,91.40
2019-01-20T23:01:58.361Z,92.30
2019-01-20T23:04:26.183Z,92.60
2019-01-20T23:06:54.198Z,92.30
2019-01-20T23:09:22.211Z,92.10
2019-01-20T23:11:50.199Z,91.80
2019-01-20T23:14:18.169Z,91.70
2019-01-20T23:16:46.106Z,92.10
2019-01-20T23:19:16.510Z,91.90
2019-01-20T23:21:44.310Z,92.70
2019-01-20T23:24:12.304Z,93.10
2019-01-20T23:26:41.509Z,92.50
2019-01-20T23:29:09.638Z,92.10
2019-01-20T23:31:37.555Z,92.70
2019-01-20T23:34:08.286Z,92.50
2019-01-20T23:36:36.149Z,92.60
2019-01-20T23:39:06.881Z,92.80
2019-01-20T23:41:34.990Z,92.40
2019-01-20T23:44:03.378Z,93.20
2019-01-20T23:46:31.306Z,93.00
2019-01-20T23:48:59.285Z,93.00
2019-01-20T23:51:27.138Z,93.00
2019-01-20T23:53:58.285Z,93.40
2019-01-20T23:56:26.181Z,92.70
2019-01-20T23:58:54.084Z,92.40
